sensor_id;sensor_type;location;lat;lon;timestamp;pressure;altitude;pressure_sealevel;temperature;humidity
57452;BME280;54295;51.224;-0.164;2022-07-21T00:02:17;101229.10;;;21.98;56.59
57452;BME280;54295;51.224;-0.164;2022-07-21T00:04:44;101226.62;;;22.19;56.43
57452;BME280;54295;51.224;-0.164;2022-07-21T00:07:12;101230.83;;;21.85;56.59
57452;BME280;54295;51.224;-0.164;2022-07-21T00:09:39;101230.03;;;22.05;55.96
57452;BME280;54295;51.224;-0.164;2022-07-21T00:12:07;101231.49;;;22.49;55.75
57452;BME280;54295;51.224;-0.164;2022-07-21T00:14:34;101228.09;;;22.48;55.62
57452;BME280;54295;51.224;-0.164;2022-07-21T00:17:05;101226.78;;;22.52;55.63
57452;BME280;54295;51.224;-0.164;2022-07-21T00:19:40;101227.55;;;22.54;55.94
57452;BME280;54295;51.224;-0.164;2022-07-21T00:22:25;101230.32;;;22.69;55.76
57452;BME280;54295;51.224;-0.164;2022-07-21T00:24:52;101231.04;;;22.23;56.04
57452;BME280;54295;51.224;-0.164;2022-07-21T00:27:20;101233.58;;;22.27;55.86
57452;BME280;54295;51.224;-0.164;2022-07-21T00:29:47;101235.60;;;22.14;55.59
57452;BME280;54295;51.224;-0.164;2022-07-21T00:32:28;101233.87;;;22.91;55.24
57452;BME280;54295;51.224;-0.164;2022-07-21T00:35:05;101233.02;;;22.87;54.94
57452;BME280;54295;51.224;-0.164;2022-07-21T00:37:49;101235.25;;;22.80;55.16
57452;BME280;54295;51.224;-0.164;2022-07-21T00:40:16;101238.52;;;22.37;55.07
57452;BME280;54295;51.224;-0.164;2022-07-21T00:42:53;101232.33;;;22.44;55.02
57452;BME280;54295;51.224;-0.164;2022-07-21T00:45:20;101228.50;;;22.93;54.72
57452;BME280;54295;51.224;-0.164;2022-07-21T00:47:47;101232.31;;;22.38;54.79
57452;BME280;54295;51.224;-0.164;2022-07-21T00:50:18;101230.77;;;22.27;54.86
57452;BME280;54295;51.224;-0.164;2022-07-21T00:52:46;101230.18;;;22.44;55.40
57452;BME280;54295;51.224;-0.164;2022-07-21T00:55:15;101233.35;;;22.34;55.15
57452;BME280;54295;51.224;-0.164;2022-07-21T00:57:49;101233.12;;;22.28;55.05
57452;BME280;54295;51.224;-0.164;2022-07-21T01:00:19;101236.47;;;22.41;55.16
57452;BME280;54295;51.224;-0.164;2022-07-21T01:02:47;101234.46;;;22.41;54.87
57452;BME280;54295;51.224;-0.164;2022-07-21T01:05:49;101232.34;;;22.20;54.78
57452;BME280;54295;51.224;-0.164;2022-07-21T01:08:16;101231.89;;;22.43;54.91
57452;BME280;54295;51.224;-0.164;2022-07-21T01:10:44;101228.48;;;21.99;55.17
57452;BME280;54295;51.224;-0.164;2022-07-21T01:13:11;101224.64;;;21.98;55.45
57452;BME280;54295;51.224;-0.164;2022-07-21T01:15:39;101227.64;;;21.68;55.03
57452;BME280;54295;51.224;-0.164;2022-07-21T01:18:06;101222.73;;;21.50;54.52
57452;BME280;54295;51.224;-0.164;2022-07-21T01:20:35;101224.26;;;21.48;54.60
57452;BME280;54295;51.224;-0.164;2022-07-21T01:23:03;101229.11;;;21.24;54.65
57452;BME280;54295;51.224;-0.164;2022-07-21T01:25:30;101230.79;;;21.78;54.12
57452;BME280;54295;51.224;-0.164;2022-07-21T01:27:57;101235.93;;;21.99;54.22
57452;BME280;54295;51.224;-0.164;2022-07-21T01:30:26;101235.88;;;22.25;54.18
57452;BME280;54295;51.224;-0.164;2022-07-21T01:32:53;101239.13;;;21.67;53.67
57452;BME280;54295;51.224;-0.164;2022-07-21T01:35:21;101237.60;;;21.64;54.33
57452;BME280;54295;51.224;-0.164;2022-07-21T01:37:49;101235.75;;;21.63;53.89
57452;BME280;54295;51.224;-0.164;2022-07-21T01:40:17;101231.53;;;21.65;53.69
57452;BME280;54295;51.224;-0.164;2022-07-21T01:42:45;101230.13;;;21.95;54.02
57452;BME280;54295;51.224;-0.164;2022-07-21T01:45:11;101226.66;;;22.13;53.75
57452;BME280;54295;51.224;-0.164;2022-07-21T01:47:38;101228.03;;;21.32;53.55
57452;BME280;54295;51.224;-0.164;2022-07-21T01:50:07;101231.76;;;21.66;54.71
57452;BME280;54295;51.224;-0.164;2022-07-21T01:52:43;101236.31;;;21.71;55.07
57452;BME280;54295;51.224;-0.164;2022-07-21T01:55:10;101229.52;;;21.45;53.64
57452;BME280;54295;51.224;-0.164;2022-07-21T01:57:37;101227.88;;;21.22;53.58
57452;BME280;54295;51.224;-0.164;2022-07-21T02:00:09;101225.91;;;21.76;53.89
57452;BME280;54295;51.224;-0.164;2022-07-21T02:02:41;101225.79;;;21.61;54.23
57452;BME280;54295;51.224;-0.164;2022-07-21T02:05:08;101222.58;;;21.57;54.86
57452;BME280;54295;51.224;-0.164;2022-07-21T02:07:36;101221.78;;;21.66;54.06
57452;BME280;54295;51.224;-0.164;2022-07-21T02:10:04;101223.80;;;21.53;54.53
57452;BME280;54295;51.224;-0.164;2022-07-21T02:12:31;101230.90;;;21.52;54.61
57452;BME280;54295;51.224;-0.164;2022-07-21T02:14:58;101231.11;;;21.58;54.33
57452;BME280;54295;51.224;-0.164;2022-07-21T02:17:25;101235.33;;;21.61;54.49
57452;BME280;54295;51.224;-0.164;2022-07-21T02:19:52;101238.88;;;21.28;53.85
57452;BME280;54295;51.224;-0.164;2022-07-21T02:22:20;101240.43;;;21.20;53.98
57452;BME280;54295;51.224;-0.164;2022-07-21T02:24:47;101242.00;;;21.55;53.61
57452;BME280;54295;51.224;-0.164;2022-07-21T02:27:14;101241.54;;;21.27;53.80
57452;BME280;54295;51.224;-0.164;2022-07-21T02:29:41;101244.08;;;21.74;53.34
57452;BME280;54295;51.224;-0.164;2022-07-21T02:32:08;101246.42;;;21.83;53.00
57452;BME280;54295;51.224;-0.164;2022-07-21T02:34:35;101251.41;;;21.76;53.75
57452;BME280;54295;51.224;-0.164;2022-07-21T02:37:02;101249.30;;;21.22;52.46
57452;BME280;54295;51.224;-0.164;2022-07-21T02:39:29;101250.02;;;21.58;53.96
57452;BME280;54295;51.224;-0.164;2022-07-21T02:41:56;101248.01;;;21.62;53.72
57452;BME280;54295;51.224;-0.164;2022-07-21T02:44:23;101241.01;;;21.37;54.06
57452;BME280;54295;51.224;-0.164;2022-07-21T02:46:50;101236.64;;;21.45;53.12
57452;BME280;54295;51.224;-0.164;2022-07-21T02:49:17;101231.09;;;21.06;53.14
57452;BME280;54295;51.224;-0.164;2022-07-21T02:51:44;101233.50;;;21.44;53.71
57452;BME280;54295;51.224;-0.164;2022-07-21T02:54:11;101229.46;;;21.59;53.91
57452;BME280;54295;51.224;-0.164;2022-07-21T02:56:38;101227.25;;;21.22;52.25
57452;BME280;54295;51.224;-0.164;2022-07-21T02:59:05;101224.59;;;21.07;52.69
57452;BME280;54295;51.224;-0.164;2022-07-21T03:01:32;101230.05;;;20.96;53.33
57452;BME280;54295;51.224;-0.164;2022-07-21T03:03:59;101232.60;;;21.35;54.20
57452;BME280;54295;51.224;-0.164;2022-07-21T03:06:27;101230.22;;;21.58;53.18
57452;BME280;54295;51.224;-0.164;2022-07-21T03:08:54;101230.56;;;21.51;53.79
57452;BME280;54295;51.224;-0.164;2022-07-21T03:11:21;101231.96;;;21.60;53.07
57452;BME280;54295;51.224;-0.164;2022-07-21T03:13:48;101225.53;;;21.09;52.35
57452;BME280;54295;51.224;-0.164;2022-07-21T03:16:15;101227.93;;;21.24;52.48
57452;BME280;54295;51.224;-0.164;2022-07-21T03:18:42;101228.68;;;21.20;51.31
57452;BME280;54295;51.224;-0.164;2022-07-21T03:21:09;101235.02;;;21.37;52.00
57452;BME280;54295;51.224;-0.164;2022-07-21T03:23:36;101238.08;;;21.30;52.62
57452;BME280;54295;51.224;-0.164;2022-07-21T03:26:04;101240.92;;;21.31;52.87
57452;BME280;54295;51.224;-0.164;2022-07-21T03:28:31;101240.50;;;21.40;52.16
57452;BME280;54295;51.224;-0.164;2022-07-21T03:30:58;101240.81;;;21.43;52.58
57452;BME280;54295;51.224;-0.164;2022-07-21T03:33:25;101240.11;;;21.53;53.19
57452;BME280;54295;51.224;-0.164;2022-07-21T03:35:52;101243.45;;;21.14;52.92
57452;BME280;54295;51.224;-0.164;2022-07-21T03:38:19;101240.87;;;21.14;51.36
57452;BME280;54295;51.224;-0.164;2022-07-21T03:40:46;101247.20;;;21.56;52.29
57452;BME280;54295;51.224;-0.164;2022-07-21T03:43:13;101249.25;;;21.62;52.10
57452;BME280;54295;51.224;-0.164;2022-07-21T03:45:40;101251.26;;;21.94;50.08
57452;BME280;54295;51.224;-0.164;2022-07-21T03:48:08;101253.98;;;21.90;50.12
57452;BME280;54295;51.224;-0.164;2022-07-21T03:50:37;101261.13;;;22.14;50.56
57452;BME280;54295;51.224;-0.164;2022-07-21T03:53:05;101265.11;;;22.14;49.22
57452;BME280;54295;51.224;-0.164;2022-07-21T03:55:33;101267.22;;;22.51;49.50
57452;BME280;54295;51.224;-0.164;2022-07-21T03:58:01;101269.57;;;22.43;49.21
57452;BME280;54295;51.224;-0.164;2022-07-21T04:00:32;101275.28;;;22.35;47.52
57452;BME280;54295;51.224;-0.164;2022-07-21T04:03:00;101277.71;;;22.37;48.21
57452;BME280;54295;51.224;-0.164;2022-07-21T04:05:28;101279.90;;;22.34;48.84
57452;BME280;54295;51.224;-0.164;2022-07-21T04:07:56;101283.70;;;22.18;48.58
57452;BME280;54295;51.224;-0.164;2022-07-21T04:10:24;101289.26;;;21.90;47.53
57452;BME280;54295;51.224;-0.164;2022-07-21T04:12:51;101289.21;;;21.95;48.11
57452;BME280;54295;51.224;-0.164;2022-07-21T04:15:21;101293.31;;;21.75;47.67
57452;BME280;54295;51.224;-0.164;2022-07-21T04:18:06;101295.09;;;21.88;48.17
57452;BME280;54295;51.224;-0.164;2022-07-21T04:20:49;101298.94;;;22.08;48.93
57452;BME280;54295;51.224;-0.164;2022-07-21T04:23:16;101297.64;;;21.91;48.03
57452;BME280;54295;51.224;-0.164;2022-07-21T04:25:43;101297.44;;;21.57;50.09
57452;BME280;54295;51.224;-0.164;2022-07-21T04:28:10;101295.57;;;21.77;49.09
57452;BME280;54295;51.224;-0.164;2022-07-21T04:30:37;101292.65;;;21.89;50.49
57452;BME280;54295;51.224;-0.164;2022-07-21T04:33:04;101292.06;;;21.28;48.68
57452;BME280;54295;51.224;-0.164;2022-07-21T04:35:32;101292.20;;;20.88;49.00
57452;BME280;54295;51.224;-0.164;2022-07-21T04:37:59;101290.59;;;20.87;49.51
57452;BME280;54295;51.224;-0.164;2022-07-21T04:40:26;101292.27;;;20.89;49.79
57452;BME280;54295;51.224;-0.164;2022-07-21T04:42:53;101294.06;;;20.66;50.17
57452;BME280;54295;51.224;-0.164;2022-07-21T04:45:20;101301.89;;;21.03;51.35
57452;BME280;54295;51.224;-0.164;2022-07-21T04:47:49;101306.98;;;21.10;51.61
57452;BME280;54295;51.224;-0.164;2022-07-21T04:50:18;101309.29;;;21.40;50.95
57452;BME280;54295;51.224;-0.164;2022-07-21T04:52:46;101313.06;;;21.30;49.83
57452;BME280;54295;51.224;-0.164;2022-07-21T04:55:14;101313.12;;;21.33;50.82
57452;BME280;54295;51.224;-0.164;2022-07-21T04:57:44;101313.00;;;21.23;50.41
57452;BME280;54295;51.224;-0.164;2022-07-21T05:00:14;101314.89;;;21.23;50.14
57452;BME280;54295;51.224;-0.164;2022-07-21T05:02:42;101311.22;;;20.83;49.46
57452;BME280;54295;51.224;-0.164;2022-07-21T05:05:10;101312.62;;;21.41;49.31
57452;BME280;54295;51.224;-0.164;2022-07-21T05:07:38;101316.21;;;20.87;49.32
57452;BME280;54295;51.224;-0.164;2022-07-21T05:10:06;101317.98;;;20.99;50.02
57452;BME280;54295;51.224;-0.164;2022-07-21T05:12:34;101320.28;;;21.15;49.47
57452;BME280;54295;51.224;-0.164;2022-07-21T05:15:06;101325.83;;;21.34;49.64
57452;BME280;54295;51.224;-0.164;2022-07-21T05:17:33;101328.57;;;21.23;49.32
57452;BME280;54295;51.224;-0.164;2022-07-21T05:20:01;101333.14;;;21.40;49.81
57452;BME280;54295;51.224;-0.164;2022-07-21T05:22:28;101334.70;;;21.20;48.99
57452;BME280;54295;51.224;-0.164;2022-07-21T05:24:56;101336.90;;;21.14;48.75
57452;BME280;54295;51.224;-0.164;2022-07-21T05:27:23;101340.05;;;21.49;48.34
57452;BME280;54295;51.224;-0.164;2022-07-21T05:29:50;101341.07;;;21.28;48.23
57452;BME280;54295;51.224;-0.164;2022-07-21T05:32:17;101343.04;;;21.06;49.05
57452;BME280;54295;51.224;-0.164;2022-07-21T05:34:44;101347.09;;;21.32;49.24
57452;BME280;54295;51.224;-0.164;2022-07-21T05:37:11;101351.52;;;21.04;49.01
57452;BME280;54295;51.224;-0.164;2022-07-21T05:39:38;101355.96;;;20.87;48.53
57452;BME280;54295;51.224;-0.164;2022-07-21T05:42:05;101353.30;;;21.15;48.80
57452;BME280;54295;51.224;-0.164;2022-07-21T05:44:32;101348.65;;;21.10;50.01
57452;BME280;54295;51.224;-0.164;2022-07-21T05:46:59;101347.53;;;21.24;48.68
57452;BME280;54295;51.224;-0.164;2022-07-21T05:49:27;101348.31;;;21.01;48.28
57452;BME280;54295;51.224;-0.164;2022-07-21T05:51:54;101342.15;;;21.19;47.75
57452;BME280;54295;51.224;-0.164;2022-07-21T05:54:21;101342.44;;;20.95;47.98
57452;BME280;54295;51.224;-0.164;2022-07-21T05:56:48;101342.41;;;21.28;48.20
57452;BME280;54295;51.224;-0.164;2022-07-21T05:59:44;101343.22;;;21.84;48.98
57452;BME280;54295;51.224;-0.164;2022-07-21T06:02:11;101345.76;;;21.17;49.09
57452;BME280;54295;51.224;-0.164;2022-07-21T06:04:38;101350.76;;;21.56;49.09
57452;BME280;54295;51.224;-0.164;2022-07-21T06:07:05;101353.56;;;21.55;47.30
57452;BME280;54295;51.224;-0.164;2022-07-21T06:09:32;101355.02;;;21.57;48.31
57452;BME280;54295;51.224;-0.164;2022-07-21T06:11:59;101358.43;;;21.59;47.06
57452;BME280;54295;51.224;-0.164;2022-07-21T06:14:26;101357.96;;;21.60;47.81
57452;BME280;54295;51.224;-0.164;2022-07-21T06:16:54;101362.36;;;21.93;46.78
57452;BME280;54295;51.224;-0.164;2022-07-21T06:19:21;101362.74;;;21.13;46.64
57452;BME280;54295;51.224;-0.164;2022-07-21T06:21:48;101359.17;;;21.26;46.62
57452;BME280;54295;51.224;-0.164;2022-07-21T06:24:15;101362.24;;;21.23;47.64
57452;BME280;54295;51.224;-0.164;2022-07-21T06:26:42;101364.57;;;21.48;48.45
57452;BME280;54295;51.224;-0.164;2022-07-21T06:29:10;101367.89;;;21.52;47.68
57452;BME280;54295;51.224;-0.164;2022-07-21T06:31:41;101374.79;;;21.57;48.47
57452;BME280;54295;51.224;-0.164;2022-07-21T06:34:08;101371.59;;;21.71;47.44
57452;BME280;54295;51.224;-0.164;2022-07-21T06:36:35;101368.98;;;21.56;47.55
57452;BME280;54295;51.224;-0.164;2022-07-21T06:39:02;101373.34;;;21.64;48.02
57452;BME280;54295;51.224;-0.164;2022-07-21T06:41:29;101375.23;;;21.81;47.35
57452;BME280;54295;51.224;-0.164;2022-07-21T06:43:56;101381.79;;;21.71;47.30
57452;BME280;54295;51.224;-0.164;2022-07-21T06:46:23;101385.79;;;20.98;46.30
57452;BME280;54295;51.224;-0.164;2022-07-21T06:48:51;101388.39;;;21.42;46.36
57452;BME280;54295;51.224;-0.164;2022-07-21T06:51:18;101394.68;;;21.56;46.71
57452;BME280;54295;51.224;-0.164;2022-07-21T06:53:45;101398.83;;;22.05;46.79
57452;BME280;54295;51.224;-0.164;2022-07-21T06:56:12;101398.96;;;22.15;46.23
57452;BME280;54295;51.224;-0.164;2022-07-21T06:58:39;101401.45;;;21.90;46.37
57452;BME280;54295;51.224;-0.164;2022-07-21T07:01:07;101400.16;;;21.50;45.21
57452;BME280;54295;51.224;-0.164;2022-07-21T07:03:35;101403.75;;;21.74;46.13
57452;BME280;54295;51.224;-0.164;2022-07-21T07:06:03;101407.39;;;21.51;47.67
57452;BME280;54295;51.224;-0.164;2022-07-21T07:08:31;101409.69;;;21.84;46.96
57452;BME280;54295;51.224;-0.164;2022-07-21T07:10:59;101404.91;;;21.84;45.31
57452;BME280;54295;51.224;-0.164;2022-07-21T07:13:26;101403.81;;;21.57;46.12
57452;BME280;54295;51.224;-0.164;2022-07-21T07:15:53;101406.30;;;22.26;47.41
57452;BME280;54295;51.224;-0.164;2022-07-21T07:18:20;101411.14;;;22.11;46.16
57452;BME280;54295;51.224;-0.164;2022-07-21T07:20:47;101414.34;;;21.94;46.32
57452;BME280;54295;51.224;-0.164;2022-07-21T07:23:14;101416.21;;;21.92;45.37
57452;BME280;54295;51.224;-0.164;2022-07-21T07:25:41;101419.13;;;22.20;45.36
57452;BME280;54295;51.224;-0.164;2022-07-21T07:28:08;101420.36;;;22.41;45.67
57452;BME280;54295;51.224;-0.164;2022-07-21T07:30:37;101420.61;;;22.50;44.62
57452;BME280;54295;51.224;-0.164;2022-07-21T07:33:04;101421.37;;;22.30;43.67
57452;BME280;54295;51.224;-0.164;2022-07-21T07:35:31;101426.71;;;21.98;43.57
57452;BME280;54295;51.224;-0.164;2022-07-21T07:38:13;101434.39;;;22.31;43.55
57452;BME280;54295;51.224;-0.164;2022-07-21T07:40:40;101442.29;;;22.09;43.87
57452;BME280;54295;51.224;-0.164;2022-07-21T07:43:08;101440.22;;;22.32;43.69
57452;BME280;54295;51.224;-0.164;2022-07-21T07:45:36;101436.52;;;21.87;44.02
57452;BME280;54295;51.224;-0.164;2022-07-21T07:48:04;101439.77;;;22.08;43.62
57452;BME280;54295;51.224;-0.164;2022-07-21T07:50:32;101443.10;;;21.77;43.58
57452;BME280;54295;51.224;-0.164;2022-07-21T07:52:59;101442.18;;;21.47;44.91
57452;BME280;54295;51.224;-0.164;2022-07-21T07:55:27;101443.64;;;22.69;44.69
57452;BME280;54295;51.224;-0.164;2022-07-21T07:57:54;101445.27;;;22.68;44.18
57452;BME280;54295;51.224;-0.164;2022-07-21T08:00:21;101444.96;;;22.53;44.04
57452;BME280;54295;51.224;-0.164;2022-07-21T08:02:48;101451.43;;;23.01;44.56
57452;BME280;54295;51.224;-0.164;2022-07-21T08:05:15;101448.50;;;22.96;44.23
57452;BME280;54295;51.224;-0.164;2022-07-21T08:07:42;101443.76;;;22.32;44.26
57452;BME280;54295;51.224;-0.164;2022-07-21T08:10:11;101443.27;;;22.90;44.09
57452;BME280;54295;51.224;-0.164;2022-07-21T08:12:39;101443.54;;;22.69;43.70
57452;BME280;54295;51.224;-0.164;2022-07-21T08:15:07;101445.10;;;22.61;43.28
57452;BME280;54295;51.224;-0.164;2022-07-21T08:17:38;101450.55;;;22.58;43.79
57452;BME280;54295;51.224;-0.164;2022-07-21T08:20:06;101448.61;;;22.92;44.11
57452;BME280;54295;51.224;-0.164;2022-07-21T08:22:33;101453.06;;;22.96;43.98
57452;BME280;54295;51.224;-0.164;2022-07-21T08:25:11;101453.85;;;23.50;43.15
57452;BME280;54295;51.224;-0.164;2022-07-21T08:27:49;101449.68;;;22.30;44.59
57452;BME280;54295;51.224;-0.164;2022-07-21T08:30:16;101448.21;;;22.45;43.88
57452;BME280;54295;51.224;-0.164;2022-07-21T08:32:52;101447.79;;;22.84;44.31
57452;BME280;54295;51.224;-0.164;2022-07-21T08:36:02;101449.12;;;23.03;44.35
57452;BME280;54295;51.224;-0.164;2022-07-21T08:38:30;101445.68;;;22.08;44.20
57452;BME280;54295;51.224;-0.164;2022-07-21T08:41:03;101444.83;;;22.69;43.51
57452;BME280;54295;51.224;-0.164;2022-07-21T08:43:30;101445.88;;;22.93;44.94
57452;BME280;54295;51.224;-0.164;2022-07-21T08:45:57;101446.42;;;21.86;44.94
57452;BME280;54295;51.224;-0.164;2022-07-21T08:48:28;101447.10;;;22.44;43.99
57452;BME280;54295;51.224;-0.164;2022-07-21T08:51:26;101443.46;;;23.53;43.11
57452;BME280;54295;51.224;-0.164;2022-07-21T08:53:53;101445.88;;;22.59;43.20
57452;BME280;54295;51.224;-0.164;2022-07-21T08:56:20;101444.08;;;23.19;43.28
57452;BME280;54295;51.224;-0.164;2022-07-21T08:58:47;101452.23;;;22.42;44.49
57452;BME280;54295;51.224;-0.164;2022-07-21T09:01:15;101455.65;;;22.71;43.45
57452;BME280;54295;51.224;-0.164;2022-07-21T09:04:21;101453.97;;;23.17;42.80
57452;BME280;54295;51.224;-0.164;2022-07-21T09:06:52;101455.71;;;22.99;43.15
57452;BME280;54295;51.224;-0.164;2022-07-21T09:12:51;101457.55;;;24.25;44.18
57452;BME280;54295;51.224;-0.164;2022-07-21T09:15:21;101455.22;;;23.55;42.75
57452;BME280;54295;51.224;-0.164;2022-07-21T09:18:05;101460.02;;;22.58;42.62
57452;BME280;54295;51.224;-0.164;2022-07-21T09:20:33;101461.58;;;23.22;41.87
57452;BME280;54295;51.224;-0.164;2022-07-21T09:23:02;101462.60;;;23.27;42.01
57452;BME280;54295;51.224;-0.164;2022-07-21T09:25:35;101459.75;;;23.88;42.63
57452;BME280;54295;51.224;-0.164;2022-07-21T09:28:08;101460.24;;;23.59;41.04
57452;BME280;54295;51.224;-0.164;2022-07-21T09:30:53;101460.27;;;24.26;40.60
57452;BME280;54295;51.224;-0.164;2022-07-21T09:33:22;101458.35;;;24.41;41.47
57452;BME280;54295;51.224;-0.164;2022-07-21T09:36:00;101460.32;;;24.30;40.27
57452;BME280;54295;51.224;-0.164;2022-07-21T09:38:29;101469.53;;;24.59;40.75
57452;BME280;54295;51.224;-0.164;2022-07-21T09:41:09;101465.87;;;24.05;40.16
57452;BME280;54295;51.224;-0.164;2022-07-21T09:43:40;101464.81;;;24.53;40.03
57452;BME280;54295;51.224;-0.164;2022-07-21T09:46:16;101469.54;;;23.95;40.72
57452;BME280;54295;51.224;-0.164;2022-07-21T09:48:45;101467.24;;;23.81;40.22
57452;BME280;54295;51.224;-0.164;2022-07-21T09:51:30;101465.34;;;24.91;40.81
57452;BME280;54295;51.224;-0.164;2022-07-21T09:54:00;101466.29;;;24.64;39.77
57452;BME280;54295;51.224;-0.164;2022-07-21T10:18:11;101464.67;;;24.26;41.80
57452;BME280;54295;51.224;-0.164;2022-07-21T10:20:42;101467.14;;;23.64;41.68
57452;BME280;54295;51.224;-0.164;2022-07-21T10:23:18;101468.28;;;25.09;38.76
57452;BME280;54295;51.224;-0.164;2022-07-21T10:25:50;101468.09;;;25.35;39.28
57452;BME280;54295;51.224;-0.164;2022-07-21T10:28:22;101471.36;;;25.43;38.78
57452;BME280;54295;51.224;-0.164;2022-07-21T10:30:51;101478.06;;;23.38;40.26
57452;BME280;54295;51.224;-0.164;2022-07-21T10:33:53;101469.28;;;24.37;39.82
57452;BME280;54295;51.224;-0.164;2022-07-21T10:36:55;101463.74;;;25.13;40.87
57452;BME280;54295;51.224;-0.164;2022-07-21T10:40:40;101462.64;;;25.28;38.72
57452;BME280;54295;51.224;-0.164;2022-07-21T10:43:41;101459.47;;;24.50;38.68
57452;BME280;54295;51.224;-0.164;2022-07-21T10:46:37;101459.62;;;24.86;38.77
57452;BME280;54295;51.224;-0.164;2022-07-21T10:49:06;101461.58;;;24.90;39.54
57452;BME280;54295;51.224;-0.164;2022-07-21T10:51:35;101455.08;;;25.35;38.59
57452;BME280;54295;51.224;-0.164;2022-07-21T10:54:35;101448.30;;;25.42;37.76
